createdAt,value
2023-05-25T00:00:21.891Z,10.40
2023-05-25T00:02:51.207Z,10.40
2023-05-25T00:05:30.598Z,10.40
2023-05-25T00:08:01.573Z,10.40
2023-05-25T00:10:38.572Z,10.40
2023-05-25T00:13:10.342Z,10.40
2023-05-25T00:15:39.863Z,10.40
2023-05-25T00:18:10.557Z,10.40
2023-05-25T00:20:48.505Z,10.40
2023-05-25T00:23:18.884Z,10.40
2023-05-25T00:25:48.918Z,10.40
2023-05-25T00:28:19.550Z,10.30
2023-05-25T00:30:51.536Z,10.20
2023-05-25T00:33:22.554Z,10.20
2023-05-25T00:35:57.053Z,10.20
2023-05-25T00:38:27.697Z,10.30
2023-05-25T00:43:41.702Z,10.30
2023-05-25T00:46:11.742Z,10.30
2023-05-25T00:48:40.901Z,10.30
2023-05-25T00:51:17.905Z,10.40
2023-05-25T00:53:50.788Z,10.30
2023-05-25T00:56:25.723Z,10.30
2023-05-25T00:58:57.021Z,10.30
2023-05-25T01:01:33.594Z,10.30
2023-05-25T01:04:06.916Z,10.40
2023-05-25T01:06:40.808Z,10.30
2023-05-25T01:09:12.499Z,10.20
2023-05-25T01:11:45.956Z,10.20
2023-05-25T01:14:19.688Z,10.30
2023-05-25T01:16:50.035Z,10.30
2023-05-25T01:22:09.461Z,10.10
2023-05-25T01:24:41.980Z,10.00
2023-05-25T01:27:15.468Z,10.10
2023-05-25T01:29:49.392Z,10.10
2023-05-25T01:32:27.214Z,10.10
2023-05-25T01:35:01.668Z,10.10
2023-05-25T01:37:35.212Z,10.10
2023-05-25T01:40:06.078Z,10.10
2023-05-25T01:42:39.566Z,10.10
2023-05-25T01:48:05.855Z,10.10
2023-05-25T01:50:45.235Z,10.10
2023-05-25T01:53:34.152Z,10.10
2023-05-25T01:56:09.696Z,10.10
2023-05-25T01:58:58.744Z,10.00
2023-05-25T02:01:29.362Z,9.90
2023-05-25T02:04:16.250Z,10.00
2023-05-25T02:06:46.543Z,10.00
2023-05-25T02:12:03.338Z,10.10
2023-05-25T02:14:31.786Z,10.20
2023-05-25T02:17:02.482Z,10.20
2023-05-25T02:19:34.224Z,10.30
2023-05-25T02:22:04.781Z,10.30
2023-05-25T02:24:35.615Z,10.30
2023-05-25T02:27:12.822Z,10.40
2023-05-25T02:29:43.783Z,10.30
2023-05-25T02:32:13.141Z,10.40
2023-05-25T02:34:43.774Z,10.40
2023-05-25T02:37:16.522Z,10.40
2023-05-25T02:39:48.299Z,10.40
2023-05-25T02:42:18.470Z,10.40
2023-05-25T02:44:49.545Z,10.50
2023-05-25T02:47:18.513Z,10.50
2023-05-25T02:49:52.273Z,10.50
2023-05-25T02:52:23.119Z,10.60
2023-05-25T02:57:42.133Z,10.60
2023-05-25T03:00:15.320Z,10.60
2023-05-25T03:02:46.830Z,10.60
2023-05-25T03:05:18.089Z,10.60
2023-05-25T03:08:05.161Z,10.60
2023-05-25T03:10:40.795Z,10.60
2023-05-25T03:13:11.226Z,10.60
2023-05-25T03:15:40.344Z,10.70
2023-05-25T03:18:11.950Z,10.80
2023-05-25T03:20:42.053Z,10.80
2023-05-25T03:23:10.722Z,10.80
2023-05-25T03:25:42.964Z,10.90
2023-05-25T03:28:27.700Z,10.80
2023-05-25T03:30:57.753Z,10.90
2023-05-25T03:33:35.495Z,11.00
2023-05-25T03:36:10.044Z,11.10
2023-05-25T03:38:40.385Z,11.10
2023-05-25T03:41:09.901Z,11.10
2023-05-25T03:43:41.784Z,11.10
2023-05-25T03:46:11.818Z,11.20
2023-05-25T03:48:40.172Z,11.30
2023-05-25T03:51:09.823Z,11.30
2023-05-25T03:53:38.180Z,11.40
2023-05-25T03:56:10.077Z,11.50
2023-05-25T03:58:53.450Z,11.50
2023-05-25T04:01:38.170Z,11.50
2023-05-25T04:04:16.692Z,11.50
2023-05-25T04:07:02.660Z,11.50
2023-05-25T04:09:32.038Z,11.50
2023-05-25T04:12:02.614Z,11.50
2023-05-25T04:14:41.051Z,11.60
2023-05-25T04:17:22.160Z,11.60
2023-05-25T04:19:52.476Z,11.60
2023-05-25T04:22:26.018Z,11.60
2023-05-25T04:24:57.378Z,11.70
2023-05-25T04:27:30.881Z,11.70
2023-05-25T04:30:36.116Z,11.70
2023-05-25T04:33:05.864Z,11.70
2023-05-25T04:35:38.666Z,11.80
2023-05-25T04:38:08.225Z,11.90
2023-05-25T04:40:54.086Z,12.00
2023-05-25T04:43:24.293Z,12.10
2023-05-25T04:46:02.050Z,12.30
2023-05-25T04:48:46.944Z,12.30
2023-05-25T04:51:19.086Z,12.40
2023-05-25T04:53:51.686Z,12.40
2023-05-25T04:56:28.525Z,12.50
2023-05-25T05:01:44.794Z,12.70
2023-05-25T05:04:19.995Z,12.80
2023-05-25T05:06:48.851Z,12.90
2023-05-25T05:09:27.611Z,13.00
2023-05-25T05:11:58.189Z,13.00
2023-05-25T05:14:30.015Z,13.00
2023-05-25T05:17:03.569Z,12.90
2023-05-25T05:19:36.445Z,13.00
2023-05-25T05:22:09.324Z,12.80
2023-05-25T05:24:38.879Z,13.00
2023-05-25T05:27:23.426Z,12.90
2023-05-25T05:29:55.761Z,13.10
2023-05-25T05:32:58.902Z,12.90
2023-05-25T05:35:40.525Z,12.80
2023-05-25T05:38:12.596Z,12.70
2023-05-25T05:40:57.498Z,12.80
2023-05-25T05:43:29.711Z,12.60
2023-05-25T05:46:01.507Z,12.40
2023-05-25T05:48:33.750Z,12.60
2023-05-25T05:51:09.984Z,12.60
2023-05-25T05:53:45.389Z,12.80
2023-05-25T05:56:22.234Z,12.80
2023-05-25T05:58:53.633Z,12.80
2023-05-25T06:01:31.029Z,12.80
2023-05-25T06:04:18.499Z,13.10
2023-05-25T06:06:56.768Z,13.30
2023-05-25T06:09:27.618Z,13.40
2023-05-25T06:12:12.609Z,13.50
2023-05-25T06:14:47.601Z,13.40
2023-05-25T06:17:18.683Z,13.70
2023-05-25T06:19:58.879Z,13.90
2023-05-25T06:22:29.908Z,13.90
2023-05-25T06:25:00.817Z,13.90
2023-05-25T06:27:30.617Z,14.10
2023-05-25T06:29:59.019Z,14.30
2023-05-25T06:32:37.490Z,14.40
2023-05-25T06:35:15.442Z,14.50
2023-05-25T06:37:46.235Z,14.60
2023-05-25T06:40:31.837Z,14.60
2023-05-25T06:43:01.322Z,15.00
2023-05-25T06:45:29.566Z,14.80
2023-05-25T06:53:44.502Z,15.30
2023-05-25T06:56:13.213Z,15.30
2023-05-25T06:58:45.967Z,15.10
2023-05-25T07:01:16.647Z,15.20
2023-05-25T07:03:55.307Z,15.40
2023-05-25T07:06:54.271Z,15.80
2023-05-25T07:09:22.755Z,15.60
2023-05-25T07:11:51.941Z,15.60
2023-05-25T07:14:23.438Z,15.40
2023-05-25T07:17:05.014Z,15.40
2023-05-25T07:19:35.800Z,15.60
2023-05-25T07:22:34.037Z,15.40
2023-05-25T07:25:11.465Z,15.40
2023-05-25T07:27:42.808Z,15.30
2023-05-25T07:30:31.017Z,15.50
2023-05-25T07:32:59.479Z,15.80
2023-05-25T07:35:27.941Z,15.70
2023-05-25T07:38:01.811Z,15.90
2023-05-25T07:40:30.002Z,15.80
2023-05-25T07:42:58.271Z,16.20
2023-05-25T07:45:26.434Z,16.40
2023-05-25T07:47:54.636Z,16.70
2023-05-25T07:50:23.790Z,16.80
2023-05-25T07:52:52.094Z,16.70
2023-05-25T07:55:21.698Z,16.70
2023-05-25T07:57:49.845Z,16.80
2023-05-25T08:00:19.001Z,17.10
2023-05-25T08:02:47.339Z,17.30
2023-05-25T08:05:15.699Z,17.20
2023-05-25T08:07:44.003Z,17.00
2023-05-25T08:10:12.751Z,17.10
2023-05-25T08:12:47.936Z,17.20
2023-05-25T08:15:18.332Z,17.30
2023-05-25T08:17:46.659Z,17.50
2023-05-25T08:20:16.085Z,17.50
2023-05-25T08:22:45.492Z,17.90
2023-05-25T08:25:15.999Z,18.10
2023-05-25T08:27:47.956Z,17.90
2023-05-25T08:30:16.255Z,18.20
2023-05-25T08:32:45.272Z,18.10
2023-05-25T08:35:14.379Z,18.00
2023-05-25T08:37:43.546Z,17.70
2023-05-25T08:40:16.814Z,18.00
2023-05-25T08:42:47.406Z,18.10
2023-05-25T08:45:30.470Z,18.10
2023-05-25T08:48:05.097Z,17.90
2023-05-25T08:50:34.956Z,17.90
2023-05-25T08:53:06.402Z,17.80
2023-05-25T08:55:38.153Z,17.90
2023-05-25T08:58:14.163Z,17.90
2023-05-25T09:00:48.063Z,17.80
2023-05-25T09:03:19.096Z,18.00
2023-05-25T09:05:48.315Z,18.10
2023-05-25T09:08:18.075Z,18.10
2023-05-25T09:10:46.230Z,18.20
2023-05-25T09:15:47.528Z,18.10
2023-05-25T09:18:15.820Z,18.40
2023-05-25T09:20:46.584Z,18.80
2023-05-25T09:23:15.572Z,18.80
2023-05-25T09:25:44.975Z,18.80
2023-05-25T09:28:26.296Z,18.60
2023-05-25T09:30:57.818Z,18.50
2023-05-25T09:33:26.043Z,18.50
2023-05-25T09:35:54.341Z,18.70
2023-05-25T09:53:09.376Z,18.90
2023-05-25T09:55:52.042Z,18.90
2023-05-25T09:58:25.162Z,18.90
2023-05-25T10:00:55.794Z,19.30
2023-05-25T10:03:24.312Z,19.60
2023-05-25T10:05:55.225Z,19.80
2023-05-25T10:08:28.773Z,19.60
2023-05-25T10:10:58.871Z,19.70
2023-05-25T10:13:30.361Z,19.80
2023-05-25T10:16:00.634Z,19.20
2023-05-25T10:18:34.022Z,19.20
2023-05-25T10:21:05.281Z,19.50
2023-05-25T10:23:42.183Z,19.50
2023-05-25T10:26:14.727Z,19.30
2023-05-25T10:28:45.665Z,19.30
2023-05-25T10:31:14.646Z,19.40
2023-05-25T10:33:47.535Z,19.70
2023-05-25T10:36:20.243Z,19.70
2023-05-25T10:38:52.844Z,19.50
2023-05-25T10:41:21.861Z,19.30
2023-05-25T10:43:50.550Z,19.30
2023-05-25T10:46:19.366Z,19.50
2023-05-25T10:48:49.432Z,20.10
2023-05-25T10:51:20.765Z,20.60
2023-05-25T10:54:01.542Z,20.50
2023-05-25T10:56:29.773Z,20.80
2023-05-25T10:58:58.170Z,20.80
2023-05-25T11:01:27.028Z,20.70
2023-05-25T11:03:57.417Z,20.60
2023-05-25T11:07:08.626Z,20.40
2023-05-25T11:09:44.584Z,20.30
2023-05-25T11:12:23.133Z,20.30
2023-05-25T11:15:11.884Z,20.50
2023-05-25T11:18:02.598Z,20.60
2023-05-25T11:20:32.092Z,20.90
2023-05-25T11:23:00.359Z,21.00
2023-05-25T11:25:40.695Z,20.80
2023-05-25T11:28:12.023Z,21.30
2023-05-25T11:30:42.869Z,21.10
2023-05-25T11:33:11.368Z,20.90
2023-05-25T11:35:39.761Z,20.80
2023-05-25T11:38:08.873Z,20.70
2023-05-25T11:40:40.313Z,21.10
2023-05-25T11:43:16.459Z,21.10
2023-05-25T11:45:44.832Z,21.00
2023-05-25T11:48:16.204Z,21.20
2023-05-25T11:50:44.756Z,21.60
2023-05-25T11:53:13.713Z,21.50
2023-05-25T11:55:52.104Z,21.40
2023-05-25T11:58:22.214Z,21.40
2023-05-25T12:00:50.409Z,21.60
2023-05-25T12:03:31.701Z,21.80
2023-05-25T12:06:00.061Z,21.70
2023-05-25T12:08:34.416Z,21.80
2023-05-25T12:11:04.294Z,21.80
2023-05-25T12:13:32.588Z,22.00
2023-05-25T12:16:01.294Z,22.10
2023-05-25T12:18:29.992Z,22.30
2023-05-25T12:20:58.706Z,22.60
2023-05-25T12:23:27.204Z,22.50
2023-05-25T12:26:12.395Z,22.70
2023-05-25T12:28:40.743Z,22.70
2023-05-25T12:31:24.987Z,22.60
2023-05-25T12:34:10.223Z,22.60
2023-05-25T12:36:42.892Z,23.00
2023-05-25T12:39:12.880Z,22.90
2023-05-25T12:41:52.550Z,23.20
2023-05-25T12:44:25.489Z,23.10
2023-05-25T12:46:55.093Z,23.50
2023-05-25T12:49:28.223Z,23.30
2023-05-25T12:51:56.883Z,23.50
2023-05-25T12:54:44.036Z,23.30
2023-05-25T12:57:15.190Z,23.10
2023-05-25T12:59:44.951Z,23.20
2023-05-25T13:02:13.665Z,22.80
2023-05-25T13:04:44.652Z,23.20
2023-05-25T13:07:13.272Z,23.40
2023-05-25T13:09:41.448Z,23.70
2023-05-25T13:12:09.965Z,23.30
2023-05-25T13:14:39.552Z,23.20
2023-05-25T13:17:07.912Z,23.80
2023-05-25T13:19:36.164Z,24.10
2023-05-25T13:22:04.343Z,24.10
2023-05-25T13:24:32.706Z,24.30
2023-05-25T13:27:01.474Z,24.30
2023-05-25T13:29:29.652Z,24.90
2023-05-25T13:31:59.212Z,24.90
2023-05-25T13:34:28.563Z,25.30
2023-05-25T13:36:56.957Z,25.70
2023-05-25T13:39:25.152Z,25.20
2023-05-25T13:41:53.377Z,25.20
2023-05-25T13:44:21.553Z,25.40
2023-05-25T13:46:49.836Z,25.80
2023-05-25T13:49:19.700Z,26.20
2023-05-25T13:51:48.068Z,26.40
2023-05-25T13:54:16.249Z,26.40
2023-05-25T13:56:44.426Z,26.50
2023-05-25T13:59:13.116Z,26.60
2023-05-25T14:01:41.944Z,26.80
2023-05-25T14:04:10.457Z,26.80
2023-05-25T14:06:40.169Z,26.50
2023-05-25T14:09:09.914Z,27.00
2023-05-25T14:11:38.185Z,27.00
2023-05-25T14:14:13.651Z,26.80
2023-05-25T14:16:42.147Z,26.80
2023-05-25T14:19:10.309Z,26.20
2023-05-25T14:21:39.948Z,26.50
2023-05-25T14:24:08.511Z,26.60
2023-05-25T14:26:37.484Z,26.60
2023-05-25T14:29:05.976Z,26.60
2023-05-25T14:31:34.146Z,27.60
2023-05-25T14:34:02.432Z,28.10
2023-05-25T14:36:30.640Z,27.20
2023-05-25T14:39:00.167Z,26.60
2023-05-25T14:41:28.356Z,26.30
2023-05-25T14:43:56.611Z,26.30
2023-05-25T14:46:24.854Z,26.70
2023-05-25T14:48:52.994Z,27.00
2023-05-25T14:51:21.196Z,26.80
2023-05-25T14:53:50.720Z,26.60
2023-05-25T14:56:21.764Z,27.10
2023-05-25T14:58:49.985Z,27.60
2023-05-25T15:01:18.232Z,27.20
2023-05-25T15:03:46.540Z,27.10
2023-05-25T15:06:14.930Z,26.50
2023-05-25T15:08:43.110Z,27.20
2023-05-25T15:11:11.307Z,27.00
2023-05-25T15:13:42.016Z,26.80
2023-05-25T15:16:12.653Z,27.20
2023-05-25T15:18:41.238Z,27.00
2023-05-25T15:21:09.516Z,26.20
2023-05-25T15:23:37.749Z,25.40
2023-05-25T15:26:07.826Z,24.90
2023-05-25T15:28:36.141Z,24.30
2023-05-25T15:31:06.193Z,24.30
2023-05-25T15:36:05.796Z,24.40
2023-05-25T15:38:34.016Z,25.40
2023-05-25T15:41:02.276Z,26.30
2023-05-25T15:43:30.562Z,25.70
2023-05-25T15:45:58.796Z,24.90
2023-05-25T15:48:28.300Z,24.50
2023-05-25T15:50:56.521Z,24.20
2023-05-25T15:53:27.845Z,23.80
2023-05-25T15:55:55.989Z,23.30
2023-05-25T15:58:24.198Z,23.30
2023-05-25T16:00:52.440Z,23.20
2023-05-25T16:03:20.659Z,23.10
2023-05-25T16:05:52.448Z,23.00
2023-05-25T16:08:20.648Z,23.10
2023-05-25T16:10:49.017Z,23.50
2023-05-25T16:13:17.242Z,23.40
2023-05-25T16:15:46.599Z,23.30
2023-05-25T16:18:16.684Z,23.10
2023-05-25T16:20:44.955Z,23.20
2023-05-25T16:23:14.823Z,25.00
2023-05-25T16:25:45.657Z,28.20
2023-05-25T16:28:14.047Z,25.50
2023-05-25T16:30:42.225Z,26.00
2023-05-25T16:33:10.538Z,29.20
2023-05-25T16:35:38.762Z,32.20
2023-05-25T16:38:07.052Z,33.10
2023-05-25T16:40:37.147Z,33.80
2023-05-25T16:43:05.500Z,34.20
2023-05-25T16:45:33.653Z,33.90
2023-05-25T16:48:01.857Z,31.90
2023-05-25T16:50:30.123Z,30.70
2023-05-25T16:52:58.310Z,31.80
2023-05-25T16:55:26.847Z,31.20
2023-05-25T16:57:56.355Z,30.20
2023-05-25T17:00:24.866Z,31.20
2023-05-25T17:02:53.099Z,31.50
2023-05-25T17:05:21.448Z,30.40
2023-05-25T17:07:49.717Z,27.40
2023-05-25T17:10:17.935Z,26.50
2023-05-25T17:12:46.092Z,25.90
2023-05-25T17:15:16.309Z,25.20
2023-05-25T17:17:45.158Z,24.50
2023-05-25T17:20:13.385Z,24.00
2023-05-25T17:22:42.037Z,23.60
2023-05-25T17:25:10.812Z,23.50
2023-05-25T17:27:38.981Z,23.30
2023-05-25T17:30:08.624Z,23.20
2023-05-25T17:32:39.137Z,23.10
2023-05-25T17:35:07.798Z,22.80
2023-05-25T17:37:36.241Z,23.00
2023-05-25T17:40:04.988Z,22.80
2023-05-25T17:42:33.256Z,22.70
2023-05-25T17:45:01.557Z,22.40
2023-05-25T17:47:30.634Z,22.30
2023-05-25T17:50:00.385Z,22.20
2023-05-25T17:52:29.449Z,22.20
2023-05-25T17:54:57.576Z,22.30
2023-05-25T17:57:25.903Z,22.20
2023-05-25T17:59:54.047Z,22.10
2023-05-25T18:02:22.377Z,22.00
2023-05-25T18:04:50.719Z,22.00
2023-05-25T18:07:21.052Z,21.90
2023-05-25T18:09:49.316Z,21.80
2023-05-25T18:12:17.493Z,21.60
2023-05-25T18:14:45.708Z,21.60
2023-05-25T18:17:14.152Z,21.50
2023-05-25T18:19:44.280Z,21.40
2023-05-25T18:22:15.679Z,21.40
2023-05-25T18:24:45.377Z,21.30
2023-05-25T18:27:13.671Z,21.30
2023-05-25T18:29:41.818Z,21.20
2023-05-25T18:32:10.040Z,21.20
2023-05-25T18:34:38.170Z,21.10
2023-05-25T18:37:06.705Z,20.90
2023-05-25T18:39:34.982Z,20.90
2023-05-25T18:42:04.705Z,20.80
2023-05-25T18:44:32.952Z,20.90
2023-05-25T18:47:01.274Z,20.80
2023-05-25T18:49:32.934Z,20.70
2023-05-25T18:52:01.597Z,20.60
2023-05-25T18:54:29.874Z,20.50
2023-05-25T18:56:58.096Z,20.40
2023-05-25T18:59:27.928Z,20.30
2023-05-25T19:01:56.170Z,20.30
2023-05-25T19:04:24.442Z,20.00
2023-05-25T19:06:52.761Z,19.80
2023-05-25T19:09:21.170Z,19.60
2023-05-25T19:11:49.460Z,19.40
2023-05-25T19:14:17.726Z,19.30
2023-05-25T19:16:48.971Z,19.00
2023-05-25T19:19:17.498Z,18.80
2023-05-25T19:21:45.778Z,18.80
2023-05-25T19:24:14.032Z,18.70
2023-05-25T19:26:42.236Z,18.60
2023-05-25T19:29:10.459Z,18.50
2023-05-25T19:31:38.716Z,18.50
2023-05-25T19:34:08.377Z,18.50
2023-05-25T19:36:36.795Z,18.30
2023-05-25T19:39:06.306Z,18.30
2023-05-25T19:41:35.946Z,18.20
2023-05-25T19:44:04.144Z,18.10
2023-05-25T19:46:32.510Z,18.00
2023-05-25T19:49:01.161Z,17.90
2023-05-25T19:51:31.229Z,17.90
2023-05-25T19:53:59.414Z,17.80
2023-05-25T19:56:27.693Z,17.70
2023-05-25T19:58:55.889Z,17.60
2023-05-25T20:01:24.383Z,17.60
2023-05-25T20:03:52.690Z,17.40
2023-05-25T20:06:21.456Z,17.40
2023-05-25T20:08:51.054Z,17.30
2023-05-25T20:11:21.205Z,17.30
2023-05-25T20:13:49.879Z,17.30
2023-05-25T20:16:18.216Z,17.20
2023-05-25T20:18:46.632Z,17.20
2023-05-25T20:21:14.795Z,17.20
2023-05-25T20:23:43.036Z,17.20
2023-05-25T20:26:13.447Z,17.10
2023-05-25T20:28:41.642Z,17.10
2023-05-25T20:31:10.200Z,17.10
2023-05-25T20:33:38.406Z,17.10
2023-05-25T20:36:07.108Z,17.10
2023-05-25T20:38:35.439Z,17.10
2023-05-25T20:41:03.629Z,17.10
2023-05-25T20:43:33.262Z,17.10
2023-05-25T20:46:01.573Z,17.10
2023-05-25T20:48:29.868Z,17.20
2023-05-25T20:50:58.050Z,17.10
2023-05-25T20:53:26.320Z,17.20
2023-05-25T20:55:54.472Z,17.20
2023-05-25T20:58:22.688Z,17.20
2023-05-25T21:00:52.209Z,17.20
2023-05-25T21:03:20.570Z,17.20
2023-05-25T21:05:48.886Z,17.20
2023-05-25T21:08:17.100Z,17.10
2023-05-25T21:10:45.300Z,17.10
2023-05-25T21:13:13.971Z,17.10
2023-05-25T21:15:42.229Z,17.10
2023-05-25T21:18:11.883Z,17.10
2023-05-25T21:20:40.261Z,17.10
2023-05-25T21:23:08.604Z,17.00
2023-05-25T21:25:37.292Z,16.90
2023-05-25T21:28:06.925Z,16.80
2023-05-25T21:30:35.055Z,16.80
2023-05-25T21:33:03.352Z,16.70
2023-05-25T21:35:33.017Z,16.50
2023-05-25T21:38:01.188Z,16.50
2023-05-25T21:40:29.361Z,16.40
2023-05-25T21:42:57.641Z,16.40
2023-05-25T21:45:26.000Z,16.40
2023-05-25T21:47:54.239Z,16.40
2023-05-25T21:50:22.498Z,16.30
2023-05-25T21:52:52.017Z,16.30
2023-05-25T21:55:20.179Z,16.30
2023-05-25T21:57:48.425Z,16.20
2023-05-25T22:00:17.732Z,16.20
2023-05-25T22:02:46.036Z,16.10
2023-05-25T22:05:15.786Z,16.00
2023-05-25T22:07:44.297Z,15.90
2023-05-25T22:10:14.093Z,15.80
2023-05-25T22:12:42.261Z,15.70
2023-05-25T22:15:11.150Z,15.60
2023-05-25T22:17:39.473Z,15.60
2023-05-25T22:20:08.819Z,15.40
2023-05-25T22:22:37.698Z,15.40
2023-05-25T22:25:06.586Z,15.40
2023-05-25T22:27:36.212Z,15.30
2023-05-25T22:30:04.607Z,15.30
2023-05-25T22:32:32.896Z,15.20
2023-05-25T22:35:01.196Z,15.10
2023-05-25T22:37:29.413Z,15.10
2023-05-25T22:39:57.972Z,15.10
2023-05-25T22:42:26.158Z,15.10
2023-05-25T22:44:55.701Z,15.20
2023-05-25T22:47:23.971Z,15.10
2023-05-25T22:49:52.120Z,15.20
2023-05-25T22:52:20.469Z,15.10
2023-05-25T22:54:48.707Z,15.10
2023-05-25T22:57:17.037Z,15.00
2023-05-25T22:59:45.211Z,15.00
2023-05-25T23:02:14.794Z,15.00
2023-05-25T23:04:43.072Z,14.90
2023-05-25T23:07:11.260Z,14.90
2023-05-25T23:09:39.432Z,14.90
2023-05-25T23:12:07.812Z,14.80
2023-05-25T23:14:36.846Z,14.70
2023-05-25T23:17:05.168Z,14.50
2023-05-25T23:19:35.814Z,14.40
2023-05-25T23:22:04.136Z,14.30
2023-05-25T23:24:32.295Z,14.30
2023-05-25T23:27:00.838Z,14.20
2023-05-25T23:29:29.251Z,14.20
2023-05-25T23:31:57.531Z,14.20
2023-05-25T23:34:25.721Z,14.10
2023-05-25T23:36:55.258Z,14.10
2023-05-25T23:39:24.234Z,14.10
2023-05-25T23:41:56.610Z,14.10
2023-05-25T23:44:25.973Z,14.00
2023-05-25T23:46:56.804Z,13.90
2023-05-25T23:49:27.155Z,13.90
2023-05-25T23:51:57.721Z,13.80
2023-05-25T23:54:26.937Z,13.80
2023-05-25T23:57:05.158Z,13.70
2023-05-25T23:59:34.291Z,13.70
